AEE274 LGAV-LGHI
Flight info
| Callsign | AEE274 |
|---|---|
| Flight time | 0h 27m |
| Altitude | 19000 |
| Route | KRO DCT OGSIL DCT SOSIR DCT PANOX |
| Aircraft | A320/M-SDE3FGHIRWY/LB1 |
Departure
| Time | 2026-04-21 18:27 |
|---|---|
| Airport | Athens Eleftherios Venizelos International Airport (LGAV) |
Arrival
| Time | 2026-04-21 18:54 |
|---|---|
| Airport | Chios Island National Airport (LGHI) |
| Time | Latitude | Longitude | Altitude | Speed | Heading |
|---|---|---|---|---|---|
| 2026-04-21 18:04 | 37.94166 | 23.95304 | 299 ft | 0 kts | 213° |
| 2026-04-21 18:16 | 37.94173 | 23.95310 | 300 ft | 2 kts | 210° |
| 2026-04-21 18:16 | 37.94187 | 23.95321 | 298 ft | 2 kts | 213° |
| 2026-04-21 18:16 | 37.94200 | 23.95333 | 299 ft | 2 kts | 214° |
| 2026-04-21 18:16 | 37.94215 | 23.95342 | 300 ft | 2 kts | 180° |
| 2026-04-21 18:17 | 37.94231 | 23.95338 | 297 ft | 2 kts | 140° |
| 2026-04-21 18:17 | 37.94238 | 23.95330 | 298 ft | 1 kts | 128° |
| 2026-04-21 18:19 | 37.94237 | 23.95333 | 297 ft | 0 kts | 128° |
| 2026-04-21 18:21 | 37.94235 | 23.95336 | 298 ft | 3 kts | 128° |
| 2026-04-21 18:22 | 37.94181 | 23.95424 | 300 ft | 16 kts | 127° |
| 2026-04-21 18:22 | 37.94134 | 23.95544 | 297 ft | 16 kts | 118° |
| 2026-04-21 18:22 | 37.94078 | 23.95665 | 298 ft | 15 kts | 85° |
| 2026-04-21 18:22 | 37.94149 | 23.95756 | 299 ft | 15 kts | 36° |
| 2026-04-21 18:23 | 37.94240 | 23.95841 | 301 ft | 17 kts | 37° |
| 2026-04-21 18:23 | 37.94338 | 23.95935 | 302 ft | 18 kts | 37° |
| 2026-04-21 18:23 | 37.94444 | 23.96036 | 303 ft | 20 kts | 37° |
| 2026-04-21 18:23 | 37.94559 | 23.96146 | 304 ft | 22 kts | 37° |
| 2026-04-21 18:24 | 37.94685 | 23.96264 | 306 ft | 23 kts | 37° |
| 2026-04-21 18:24 | 37.94819 | 23.96392 | 307 ft | 25 kts | 37° |
| 2026-04-21 18:24 | 37.94961 | 23.96528 | 309 ft | 26 kts | 37° |
| 2026-04-21 18:24 | 37.95111 | 23.96671 | 311 ft | 28 kts | 36° |
| 2026-04-21 18:25 | 37.95248 | 23.96799 | 312 ft | 21 kts | 36° |
| 2026-04-21 18:25 | 37.95286 | 23.96917 | 313 ft | 15 kts | 125° |
| 2026-04-21 18:25 | 37.95273 | 23.96938 | 313 ft | 0 kts | 127° |
| 2026-04-21 18:25 | 37.95266 | 23.96951 | 313 ft | 7 kts | 127° |
| 2026-04-21 18:26 | 37.95211 | 23.97017 | 314 ft | 12 kts | 166° |
| 2026-04-21 18:26 | 37.95165 | 23.96993 | 314 ft | 0 kts | 217° |
| 2026-04-21 18:26 | 37.95161 | 23.96988 | 314 ft | 7 kts | 217° |
| 2026-04-21 18:26 | 37.94936 | 23.96775 | 311 ft | 76 kts | 217° |
| 2026-04-21 18:27 | 37.94350 | 23.96218 | 302 ft | 131 kts | 217° |
| 2026-04-21 18:27 | 37.93518 | 23.95426 | 512 ft | 156 kts | 215° |
| 2026-04-21 18:27 | 37.92586 | 23.94728 | 1175 ft | 156 kts | 209° |
| 2026-04-21 18:27 | 37.91632 | 23.94082 | 1840 ft | 155 kts | 210° |
| 2026-04-21 18:28 | 37.90659 | 23.93422 | 2294 ft | 167 kts | 210° |
| 2026-04-21 18:28 | 37.89570 | 23.92678 | 2573 ft | 189 kts | 210° |
| 2026-04-21 18:28 | 37.88339 | 23.91836 | 2884 ft | 214 kts | 210° |
| 2026-04-21 18:28 | 37.86956 | 23.90891 | 3340 ft | 237 kts | 210° |
| 2026-04-21 18:29 | 37.85476 | 23.89879 | 4073 ft | 245 kts | 210° |
| 2026-04-21 18:29 | 37.83965 | 23.88845 | 4981 ft | 249 kts | 210° |
| 2026-04-21 18:29 | 37.82386 | 23.87846 | 5727 ft | 263 kts | 200° |
| 2026-04-21 18:29 | 37.80519 | 23.87642 | 6438 ft | 279 kts | 172° |
| 2026-04-21 18:30 | 37.78735 | 23.88664 | 7233 ft | 290 kts | 141° |
| 2026-04-21 18:30 | 37.77569 | 23.90739 | 8052 ft | 297 kts | 109° |
| 2026-04-21 18:30 | 37.77402 | 23.93327 | 8873 ft | 300 kts | 76° |
| 2026-04-21 18:30 | 37.78170 | 23.95784 | 9708 ft | 302 kts | 62° |
| 2026-04-21 18:31 | 37.79124 | 23.98193 | 10300 ft | 315 kts | 61° |
| 2026-04-21 18:31 | 37.80168 | 24.00749 | 10536 ft | 339 kts | 60° |
| 2026-04-21 18:31 | 37.81282 | 24.03467 | 10874 ft | 356 kts | 60° |
| 2026-04-21 18:31 | 37.82426 | 24.06279 | 11507 ft | 362 kts | 60° |
| 2026-04-21 18:32 | 37.83577 | 24.09144 | 12174 ft | 368 kts | 61° |
| 2026-04-21 18:32 | 37.84730 | 24.12053 | 12861 ft | 372 kts | 61° |
| 2026-04-21 18:32 | 37.85890 | 24.15001 | 13542 ft | 377 kts | 61° |
| 2026-04-21 18:32 | 37.86990 | 24.17802 | 14136 ft | 381 kts | 61° |
| 2026-04-21 18:33 | 37.88174 | 24.20820 | 14751 ft | 384 kts | 61° |
| 2026-04-21 18:33 | 37.89369 | 24.23866 | 15362 ft | 388 kts | 61° |
| 2026-04-21 18:33 | 37.90576 | 24.26937 | 15954 ft | 391 kts | 61° |
| 2026-04-21 18:33 | 37.91796 | 24.30037 | 16535 ft | 395 kts | 61° |
| 2026-04-21 18:34 | 37.93023 | 24.33165 | 17131 ft | 399 kts | 61° |
| 2026-04-21 18:34 | 37.94260 | 24.36327 | 17712 ft | 403 kts | 61° |
| 2026-04-21 18:34 | 37.95516 | 24.39528 | 18295 ft | 407 kts | 60° |
| 2026-04-21 18:34 | 37.96783 | 24.42757 | 18762 ft | 411 kts | 60° |
| 2026-04-21 18:35 | 37.97643 | 24.44948 | 18881 ft | 412 kts | 60° |
| 2026-04-21 18:35 | 37.99455 | 24.49249 | 18955 ft | 426 kts | 54° |
| 2026-04-21 18:35 | 38.01233 | 24.52260 | 18949 ft | 428 kts | 46° |
| 2026-04-21 18:35 | 38.03151 | 24.55154 | 18948 ft | 429 kts | 46° |
| 2026-04-21 18:36 | 38.05073 | 24.58060 | 18948 ft | 430 kts | 47° |
| 2026-04-21 18:36 | 38.06368 | 24.60023 | 18954 ft | 430 kts | 46° |
| 2026-04-21 18:36 | 38.08286 | 24.62938 | 18946 ft | 430 kts | 47° |
| 2026-04-21 18:36 | 38.10203 | 24.65858 | 18948 ft | 430 kts | 47° |
| 2026-04-21 18:37 | 38.12118 | 24.68775 | 18948 ft | 430 kts | 46° |
| 2026-04-21 18:37 | 38.14034 | 24.71698 | 18950 ft | 430 kts | 47° |
| 2026-04-21 18:37 | 38.15949 | 24.74619 | 18945 ft | 430 kts | 47° |
| 2026-04-21 18:37 | 38.17860 | 24.77537 | 18950 ft | 430 kts | 47° |
| 2026-04-21 18:38 | 38.19781 | 24.80470 | 18953 ft | 431 kts | 47° |
| 2026-04-21 18:38 | 38.21694 | 24.83400 | 18957 ft | 431 kts | 47° |
| 2026-04-21 18:38 | 38.23605 | 24.86330 | 18958 ft | 431 kts | 47° |
| 2026-04-21 18:38 | 38.25516 | 24.89264 | 18958 ft | 431 kts | 47° |
| 2026-04-21 18:39 | 38.27424 | 24.92199 | 18959 ft | 431 kts | 47° |
| 2026-04-21 18:39 | 38.29334 | 24.95137 | 18962 ft | 431 kts | 47° |
| 2026-04-21 18:39 | 38.31245 | 24.98076 | 18966 ft | 431 kts | 47° |
| 2026-04-21 18:39 | 38.33152 | 25.01012 | 18966 ft | 431 kts | 47° |
| 2026-04-21 18:40 | 38.35061 | 25.03952 | 18970 ft | 430 kts | 47° |
| 2026-04-21 18:40 | 38.36970 | 25.06890 | 18963 ft | 429 kts | 47° |
| 2026-04-21 18:40 | 38.38667 | 25.09972 | 18689 ft | 422 kts | 58° |
| 2026-04-21 18:40 | 38.39817 | 25.13405 | 18108 ft | 423 kts | 72° |
| 2026-04-21 18:41 | 38.40345 | 25.17086 | 17515 ft | 422 kts | 85° |
| 2026-04-21 18:41 | 38.40284 | 25.20801 | 16912 ft | 418 kts | 94° |
| 2026-04-21 18:41 | 38.40085 | 25.24515 | 16181 ft | 419 kts | 94° |
| 2026-04-21 18:41 | 38.39900 | 25.28176 | 15697 ft | 408 kts | 93° |
| 2026-04-21 18:42 | 38.39728 | 25.31742 | 14731 ft | 400 kts | 93° |
| 2026-04-21 18:42 | 38.39563 | 25.35247 | 13773 ft | 393 kts | 93° |
| 2026-04-21 18:42 | 38.39398 | 25.38692 | 12727 ft | 386 kts | 94° |
| 2026-04-21 18:42 | 38.39232 | 25.42078 | 11765 ft | 379 kts | 94° |
| 2026-04-21 18:43 | 38.39066 | 25.45340 | 11311 ft | 360 kts | 94° |
| 2026-04-21 18:43 | 38.38902 | 25.48498 | 10941 ft | 355 kts | 94° |
| 2026-04-21 18:43 | 38.38738 | 25.51627 | 10577 ft | 352 kts | 94° |
| 2026-04-21 18:43 | 38.38575 | 25.54732 | 10222 ft | 351 kts | 94° |
| 2026-04-21 18:44 | 38.38411 | 25.57814 | 9893 ft | 347 kts | 94° |
| 2026-04-21 18:44 | 38.38247 | 25.60849 | 9564 ft | 340 kts | 94° |
| 2026-04-21 18:44 | 38.38087 | 25.63809 | 9209 ft | 327 kts | 94° |
| 2026-04-21 18:44 | 38.37935 | 25.66625 | 8879 ft | 310 kts | 94° |
| 2026-04-21 18:45 | 38.37731 | 25.69299 | 8551 ft | 299 kts | 101° |
| 2026-04-21 18:45 | 38.37146 | 25.71748 | 8229 ft | 295 kts | 115° |
| 2026-04-21 18:45 | 38.36128 | 25.74011 | 7901 ft | 294 kts | 128° |
| 2026-04-21 18:45 | 38.34831 | 25.76009 | 7582 ft | 292 kts | 131° |
| 2026-04-21 18:46 | 38.33521 | 25.77985 | 7261 ft | 291 kts | 131° |
| 2026-04-21 18:46 | 38.32223 | 25.79947 | 6941 ft | 290 kts | 131° |
| 2026-04-21 18:46 | 38.30924 | 25.81905 | 6628 ft | 288 kts | 131° |
| 2026-04-21 18:46 | 38.29643 | 25.83837 | 6319 ft | 287 kts | 131° |
| 2026-04-21 18:47 | 38.28350 | 25.85787 | 5977 ft | 286 kts | 131° |
| 2026-04-21 18:47 | 38.27173 | 25.87819 | 5642 ft | 286 kts | 117° |
| 2026-04-21 18:47 | 38.26680 | 25.90250 | 5323 ft | 286 kts | 91° |
| 2026-04-21 18:47 | 38.27041 | 25.92721 | 4999 ft | 285 kts | 66° |
| 2026-04-21 18:48 | 38.28143 | 25.94763 | 4667 ft | 276 kts | 46° |
| 2026-04-21 18:48 | 38.29414 | 25.96532 | 4327 ft | 266 kts | 47° |
| 2026-04-21 18:48 | 38.30637 | 25.98246 | 4007 ft | 257 kts | 47° |
| 2026-04-21 18:48 | 38.31813 | 25.99903 | 3693 ft | 247 kts | 47° |
| 2026-04-21 18:49 | 38.32946 | 26.01501 | 3364 ft | 240 kts | 47° |
| 2026-04-21 18:49 | 38.34040 | 26.03046 | 3182 ft | 227 kts | 48° |
| 2026-04-21 18:49 | 38.34744 | 26.04043 | 3203 ft | 221 kts | 48° |
| 2026-04-21 18:49 | 38.36110 | 26.05973 | 3220 ft | 218 kts | 47° |
| 2026-04-21 18:50 | 38.37111 | 26.07387 | 3220 ft | 206 kts | 49° |
| 2026-04-21 18:50 | 38.38020 | 26.08671 | 3168 ft | 188 kts | 47° |
| 2026-04-21 18:50 | 38.38900 | 26.09877 | 2951 ft | 181 kts | 46° |
| 2026-04-21 18:50 | 38.39745 | 26.11022 | 2665 ft | 175 kts | 46° |
| 2026-04-21 18:51 | 38.40588 | 26.12144 | 2364 ft | 173 kts | 46° |
| 2026-04-21 18:51 | 38.41404 | 26.13234 | 2148 ft | 166 kts | 47° |
| 2026-04-21 18:51 | 38.42182 | 26.14282 | 2154 ft | 162 kts | 49° |
| 2026-04-21 18:51 | 38.42762 | 26.15496 | 2104 ft | 160 kts | 85° |
| 2026-04-21 18:52 | 38.42492 | 26.16784 | 2180 ft | 151 kts | 134° |
| 2026-04-21 18:52 | 38.41668 | 26.17541 | 2262 ft | 146 kts | 168° |
| 2026-04-21 18:52 | 38.40696 | 26.17507 | 2259 ft | 141 kts | 204° |
| 2026-04-21 18:52 | 38.39978 | 26.16732 | 2016 ft | 136 kts | 237° |
| 2026-04-21 18:53 | 38.39495 | 26.15707 | 1679 ft | 133 kts | 231° |
| 2026-04-21 18:53 | 38.38740 | 26.15045 | 1237 ft | 135 kts | 201° |
| 2026-04-21 18:53 | 38.37800 | 26.14785 | 780 ft | 139 kts | 188° |
| 2026-04-21 18:53 | 38.36857 | 26.14604 | 438 ft | 134 kts | 191° |
| 2026-04-21 18:54 | 38.35956 | 26.14408 | 233 ft | 130 kts | 192° |
| 2026-04-21 18:54 | 38.35063 | 26.14214 | 51 ft | 130 kts | 192° |
| 2026-04-21 18:54 | 38.34301 | 26.14046 | 17 ft | 76 kts | 189° |
| 2026-04-21 18:54 | 38.33931 | 26.13968 | 17 ft | 43 kts | 190° |
| 2026-04-21 18:55 | 38.33817 | 26.13929 | 17 ft | 19 kts | 207° |
| 2026-04-21 18:55 | 38.33774 | 26.13943 | 17 ft | 6 kts | 17° |
| 2026-04-21 18:55 | 38.33888 | 26.13961 | 17 ft | 23 kts | 10° |
| 2026-04-21 18:55 | 38.34053 | 26.13997 | 15 ft | 26 kts | 9° |
| 2026-04-21 18:56 | 38.34239 | 26.14036 | 16 ft | 28 kts | 9° |
| 2026-04-21 18:56 | 38.34357 | 26.14098 | 17 ft | 17 kts | 46° |
| 2026-04-21 18:56 | 38.34414 | 26.14222 | 17 ft | 16 kts | 68° |
| 2026-04-21 18:56 | 38.34451 | 26.14230 | 17 ft | 0 kts | 316° |